sensor_id;sensor_type;location;lat;lon;timestamp;pressure;altitude;pressure_sealevel;temperature
34807;BMP180;18310;55.586;12.286;2022-08-21T00:01:05;101528.00;;;26.60
34807;BMP180;18310;55.586;12.286;2022-08-21T00:04:11;101522.00;;;26.50
34807;BMP180;18310;55.586;12.286;2022-08-21T00:07:24;101522.00;;;26.40
34807;BMP180;18310;55.586;12.286;2022-08-21T00:10:27;101516.00;;;26.30
34807;BMP180;18310;55.586;12.286;2022-08-21T00:13:30;101522.00;;;26.20
34807;BMP180;18310;55.586;12.286;2022-08-21T00:16:35;101528.00;;;26.20
34807;BMP180;18310;55.586;12.286;2022-08-21T00:19:40;101522.00;;;26.10
34807;BMP180;18310;55.586;12.286;2022-08-21T00:22:43;101523.00;;;26.10
34807;BMP180;18310;55.586;12.286;2022-08-21T00:25:47;101519.00;;;26.00
34807;BMP180;18310;55.586;12.286;2022-08-21T00:28:50;101520.00;;;26.00
34807;BMP180;18310;55.586;12.286;2022-08-21T00:31:53;101514.00;;;26.00
34807;BMP180;18310;55.586;12.286;2022-08-21T00:34:58;101509.00;;;25.90
34807;BMP180;18310;55.586;12.286;2022-08-21T00:38:02;101508.00;;;25.90
34807;BMP180;18310;55.586;12.286;2022-08-21T00:41:10;101508.00;;;25.90
34807;BMP180;18310;55.586;12.286;2022-08-21T00:44:34;101513.00;;;25.90
34807;BMP180;18310;55.586;12.286;2022-08-21T00:47:37;101505.00;;;25.90
34807;BMP180;18310;55.586;12.286;2022-08-21T00:50:49;101516.00;;;25.90
34807;BMP180;18310;55.586;12.286;2022-08-21T00:53:57;101512.00;;;25.80
34807;BMP180;18310;55.586;12.286;2022-08-21T00:57:13;101523.00;;;25.70
34807;BMP180;18310;55.586;12.286;2022-08-21T01:00:23;101515.00;;;25.60
34807;BMP180;18310;55.586;12.286;2022-08-21T01:03:28;101515.00;;;25.60
34807;BMP180;18310;55.586;12.286;2022-08-21T01:06:33;101518.00;;;25.60
34807;BMP180;18310;55.586;12.286;2022-08-21T01:09:37;101516.00;;;25.60
34807;BMP180;18310;55.586;12.286;2022-08-21T01:12:41;101505.00;;;25.50
34807;BMP180;18310;55.586;12.286;2022-08-21T01:15:48;101510.00;;;25.50
34807;BMP180;18310;55.586;12.286;2022-08-21T01:18:54;101508.00;;;25.50
34807;BMP180;18310;55.586;12.286;2022-08-21T01:21:59;101509.00;;;25.40
34807;BMP180;18310;55.586;12.286;2022-08-21T01:25:06;101497.00;;;25.40
34807;BMP180;18310;55.586;12.286;2022-08-21T01:28:13;101505.00;;;25.30
34807;BMP180;18310;55.586;12.286;2022-08-21T01:31:22;101508.00;;;25.20
34807;BMP180;18310;55.586;12.286;2022-08-21T01:34:27;101512.00;;;25.20
34807;BMP180;18310;55.586;12.286;2022-08-21T01:37:32;101510.00;;;25.10
34807;BMP180;18310;55.586;12.286;2022-08-21T01:40:36;101505.00;;;25.10
34807;BMP180;18310;55.586;12.286;2022-08-21T01:43:40;101503.00;;;25.10
34807;BMP180;18310;55.586;12.286;2022-08-21T01:46:44;101510.00;;;25.00
34807;BMP180;18310;55.586;12.286;2022-08-21T01:49:47;101498.00;;;25.00
34807;BMP180;18310;55.586;12.286;2022-08-21T01:52:52;101498.00;;;25.00
34807;BMP180;18310;55.586;12.286;2022-08-21T01:55:55;101497.00;;;24.90
34807;BMP180;18310;55.586;12.286;2022-08-21T01:58:59;101499.00;;;24.90
34807;BMP180;18310;55.586;12.286;2022-08-21T02:02:02;101500.00;;;24.90
34807;BMP180;18310;55.586;12.286;2022-08-21T02:05:07;101494.00;;;24.80
34807;BMP180;18310;55.586;12.286;2022-08-21T02:08:12;101494.00;;;24.80
34807;BMP180;18310;55.586;12.286;2022-08-21T02:11:16;101500.00;;;24.80
34807;BMP180;18310;55.586;12.286;2022-08-21T02:14:19;101504.00;;;24.80
34807;BMP180;18310;55.586;12.286;2022-08-21T02:17:41;101497.00;;;24.80
34807;BMP180;18310;55.586;12.286;2022-08-21T02:20:49;101496.00;;;24.70
34807;BMP180;18310;55.586;12.286;2022-08-21T02:23:59;101495.00;;;24.60
34807;BMP180;18310;55.586;12.286;2022-08-21T02:27:02;101503.00;;;24.60
34807;BMP180;18310;55.586;12.286;2022-08-21T02:30:08;101494.00;;;24.50
34807;BMP180;18310;55.586;12.286;2022-08-21T02:33:13;101499.00;;;24.50
34807;BMP180;18310;55.586;12.286;2022-08-21T02:36:17;101503.00;;;24.50
34807;BMP180;18310;55.586;12.286;2022-08-21T02:39:21;101497.00;;;24.50
34807;BMP180;18310;55.586;12.286;2022-08-21T02:42:28;101489.00;;;24.50
34807;BMP180;18310;55.586;12.286;2022-08-21T02:45:33;101489.00;;;24.50
34807;BMP180;18310;55.586;12.286;2022-08-21T02:48:38;101486.00;;;24.50
34807;BMP180;18310;55.586;12.286;2022-08-21T02:51:41;101479.00;;;24.50
34807;BMP180;18310;55.586;12.286;2022-08-21T02:54:46;101484.00;;;24.50
34807;BMP180;18310;55.586;12.286;2022-08-21T02:57:50;101490.00;;;24.50
34807;BMP180;18310;55.586;12.286;2022-08-21T03:00:54;101487.00;;;24.50
34807;BMP180;18310;55.586;12.286;2022-08-21T03:03:57;101492.00;;;24.50
34807;BMP180;18310;55.586;12.286;2022-08-21T03:07:01;101488.00;;;24.40
34807;BMP180;18310;55.586;12.286;2022-08-21T03:10:09;101482.00;;;24.40
34807;BMP180;18310;55.586;12.286;2022-08-21T03:13:14;101487.00;;;24.40
34807;BMP180;18310;55.586;12.286;2022-08-21T03:16:18;101494.00;;;24.40
34807;BMP180;18310;55.586;12.286;2022-08-21T03:19:22;101489.00;;;24.30
34807;BMP180;18310;55.586;12.286;2022-08-21T03:22:26;101502.00;;;24.30
34807;BMP180;18310;55.586;12.286;2022-08-21T03:25:34;101495.00;;;24.30
34807;BMP180;18310;55.586;12.286;2022-08-21T03:28:41;101494.00;;;24.30
34807;BMP180;18310;55.586;12.286;2022-08-21T03:31:45;101488.00;;;24.20
34807;BMP180;18310;55.586;12.286;2022-08-21T03:34:50;101495.00;;;24.30
34807;BMP180;18310;55.586;12.286;2022-08-21T03:37:54;101493.00;;;24.30
34807;BMP180;18310;55.586;12.286;2022-08-21T03:40:59;101494.00;;;24.40
34807;BMP180;18310;55.586;12.286;2022-08-21T03:44:03;101503.00;;;24.40
34807;BMP180;18310;55.586;12.286;2022-08-21T03:47:06;101498.00;;;24.40
34807;BMP180;18310;55.586;12.286;2022-08-21T03:50:10;101497.00;;;24.40
34807;BMP180;18310;55.586;12.286;2022-08-21T03:53:15;101503.00;;;24.50
34807;BMP180;18310;55.586;12.286;2022-08-21T03:56:20;101504.00;;;24.60
34807;BMP180;18310;55.586;12.286;2022-08-21T03:59:23;101504.00;;;24.70
34807;BMP180;18310;55.586;12.286;2022-08-21T04:02:28;101505.00;;;24.70
34807;BMP180;18310;55.586;12.286;2022-08-21T04:05:32;101513.00;;;24.70
34807;BMP180;18310;55.586;12.286;2022-08-21T04:08:36;101512.00;;;24.70
34807;BMP180;18310;55.586;12.286;2022-08-21T04:11:41;101500.00;;;24.70
34807;BMP180;18310;55.586;12.286;2022-08-21T04:14:44;101503.00;;;24.70
34807;BMP180;18310;55.586;12.286;2022-08-21T04:17:48;101503.00;;;24.80
34807;BMP180;18310;55.586;12.286;2022-08-21T04:20:54;101502.00;;;24.70
34807;BMP180;18310;55.586;12.286;2022-08-21T04:23:59;101502.00;;;24.70
34807;BMP180;18310;55.586;12.286;2022-08-21T04:27:04;101513.00;;;24.80
34807;BMP180;18310;55.586;12.286;2022-08-21T04:30:10;101513.00;;;24.80
34807;BMP180;18310;55.586;12.286;2022-08-21T04:33:14;101515.00;;;24.90
34807;BMP180;18310;55.586;12.286;2022-08-21T04:36:17;101516.00;;;24.90
34807;BMP180;18310;55.586;12.286;2022-08-21T04:39:25;101514.00;;;24.90
34807;BMP180;18310;55.586;12.286;2022-08-21T04:42:32;101512.00;;;25.00
34807;BMP180;18310;55.586;12.286;2022-08-21T04:45:39;101513.00;;;25.00
34807;BMP180;18310;55.586;12.286;2022-08-21T04:48:43;101520.00;;;25.00
34807;BMP180;18310;55.586;12.286;2022-08-21T04:51:46;101524.00;;;25.00
34807;BMP180;18310;55.586;12.286;2022-08-21T04:54:51;101521.00;;;25.00
34807;BMP180;18310;55.586;12.286;2022-08-21T04:57:57;101514.00;;;25.00
34807;BMP180;18310;55.586;12.286;2022-08-21T05:01:03;101523.00;;;25.10
34807;BMP180;18310;55.586;12.286;2022-08-21T05:04:11;101517.00;;;25.30
34807;BMP180;18310;55.586;12.286;2022-08-21T05:07:23;101531.00;;;25.80
34807;BMP180;18310;55.586;12.286;2022-08-21T05:10:43;101529.00;;;26.30
34807;BMP180;18310;55.586;12.286;2022-08-21T05:13:48;101528.00;;;26.70
34807;BMP180;18310;55.586;12.286;2022-08-21T05:16:58;101534.00;;;27.30
34807;BMP180;18310;55.586;12.286;2022-08-21T05:20:02;101534.00;;;27.80
34807;BMP180;18310;55.586;12.286;2022-08-21T05:23:07;101538.00;;;28.30
34807;BMP180;18310;55.586;12.286;2022-08-21T05:26:11;101536.00;;;28.60
34807;BMP180;18310;55.586;12.286;2022-08-21T05:29:21;101543.00;;;28.90
34807;BMP180;18310;55.586;12.286;2022-08-21T05:32:25;101538.00;;;29.10
34807;BMP180;18310;55.586;12.286;2022-08-21T05:35:31;101541.00;;;29.50
34807;BMP180;18310;55.586;12.286;2022-08-21T05:38:34;101542.00;;;29.80
34807;BMP180;18310;55.586;12.286;2022-08-21T05:41:38;101541.00;;;30.20
34807;BMP180;18310;55.586;12.286;2022-08-21T05:44:43;101544.00;;;30.60
34807;BMP180;18310;55.586;12.286;2022-08-21T05:47:46;101542.00;;;30.90
34807;BMP180;18310;55.586;12.286;2022-08-21T05:50:51;101548.00;;;31.40
34807;BMP180;18310;55.586;12.286;2022-08-21T05:53:55;101549.00;;;31.80
34807;BMP180;18310;55.586;12.286;2022-08-21T05:56:58;101543.00;;;32.20
34807;BMP180;18310;55.586;12.286;2022-08-21T06:00:05;101539.00;;;32.70
34807;BMP180;18310;55.586;12.286;2022-08-21T06:03:13;101536.00;;;33.00
34807;BMP180;18310;55.586;12.286;2022-08-21T06:06:17;101544.00;;;33.30
34807;BMP180;18310;55.586;12.286;2022-08-21T06:09:21;101539.00;;;33.50
34807;BMP180;18310;55.586;12.286;2022-08-21T06:12:25;101540.00;;;33.70
34807;BMP180;18310;55.586;12.286;2022-08-21T06:15:30;101540.00;;;33.90
34807;BMP180;18310;55.586;12.286;2022-08-21T06:18:34;101550.00;;;34.10
34807;BMP180;18310;55.586;12.286;2022-08-21T06:21:38;101551.00;;;34.40
34807;BMP180;18310;55.586;12.286;2022-08-21T06:24:41;101539.00;;;34.70
34807;BMP180;18310;55.586;12.286;2022-08-21T06:27:44;101542.00;;;34.90
34807;BMP180;18310;55.586;12.286;2022-08-21T06:30:49;101548.00;;;35.10
34807;BMP180;18310;55.586;12.286;2022-08-21T06:33:53;101546.00;;;35.00
34807;BMP180;18310;55.586;12.286;2022-08-21T06:36:57;101544.00;;;35.00
34807;BMP180;18310;55.586;12.286;2022-08-21T06:40:00;101537.00;;;35.10
34807;BMP180;18310;55.586;12.286;2022-08-21T06:43:09;101550.00;;;35.20
34807;BMP180;18310;55.586;12.286;2022-08-21T06:46:17;101543.00;;;35.10
34807;BMP180;18310;55.586;12.286;2022-08-21T06:49:20;101543.00;;;35.40
34807;BMP180;18310;55.586;12.286;2022-08-21T06:52:24;101540.00;;;35.70
34807;BMP180;18310;55.586;12.286;2022-08-21T06:55:28;101552.00;;;36.10
34807;BMP180;18310;55.586;12.286;2022-08-21T06:58:32;101545.00;;;36.30
34807;BMP180;18310;55.586;12.286;2022-08-21T07:01:37;101555.00;;;36.50
34807;BMP180;18310;55.586;12.286;2022-08-21T07:04:41;101555.00;;;36.50
34807;BMP180;18310;55.586;12.286;2022-08-21T07:07:45;101552.00;;;36.60
34807;BMP180;18310;55.586;12.286;2022-08-21T07:10:49;101560.00;;;36.80
34807;BMP180;18310;55.586;12.286;2022-08-21T07:13:53;101560.00;;;36.90
34807;BMP180;18310;55.586;12.286;2022-08-21T07:16:59;101554.00;;;36.70
34807;BMP180;18310;55.586;12.286;2022-08-21T07:20:04;101550.00;;;36.70
34807;BMP180;18310;55.586;12.286;2022-08-21T07:23:12;101549.00;;;36.70
34807;BMP180;18310;55.586;12.286;2022-08-21T07:26:21;101551.00;;;36.70
34807;BMP180;18310;55.586;12.286;2022-08-21T07:29:24;101554.00;;;36.30
34807;BMP180;18310;55.586;12.286;2022-08-21T07:32:29;101548.00;;;35.80
34807;BMP180;18310;55.586;12.286;2022-08-21T07:35:32;101549.00;;;35.20
34807;BMP180;18310;55.586;12.286;2022-08-21T07:38:36;101544.00;;;34.60
34807;BMP180;18310;55.586;12.286;2022-08-21T07:41:39;101546.00;;;34.20
34807;BMP180;18310;55.586;12.286;2022-08-21T07:44:43;101532.00;;;33.80
34807;BMP180;18310;55.586;12.286;2022-08-21T07:47:48;101530.00;;;33.50
34807;BMP180;18310;55.586;12.286;2022-08-21T07:51:02;101524.00;;;33.30
34807;BMP180;18310;55.586;12.286;2022-08-21T07:54:08;101520.00;;;33.10
34807;BMP180;18310;55.586;12.286;2022-08-21T07:57:18;101519.00;;;32.90
34807;BMP180;18310;55.586;12.286;2022-08-21T08:00:25;101522.00;;;32.80
34807;BMP180;18310;55.586;12.286;2022-08-21T08:03:30;101516.00;;;32.70
34807;BMP180;18310;55.586;12.286;2022-08-21T08:06:34;101519.00;;;32.70
34807;BMP180;18310;55.586;12.286;2022-08-21T08:09:37;101524.00;;;32.70
34807;BMP180;18310;55.586;12.286;2022-08-21T08:12:42;101520.00;;;32.70
34807;BMP180;18310;55.586;12.286;2022-08-21T08:15:47;101519.00;;;32.60
34807;BMP180;18310;55.586;12.286;2022-08-21T08:18:52;101520.00;;;32.60
34807;BMP180;18310;55.586;12.286;2022-08-21T08:21:57;101524.00;;;32.60
34807;BMP180;18310;55.586;12.286;2022-08-21T08:25:01;101529.00;;;32.60
34807;BMP180;18310;55.586;12.286;2022-08-21T08:28:10;101524.00;;;32.60
34807;BMP180;18310;55.586;12.286;2022-08-21T08:31:18;101516.00;;;32.60
34807;BMP180;18310;55.586;12.286;2022-08-21T08:34:23;101514.00;;;32.60
34807;BMP180;18310;55.586;12.286;2022-08-21T08:37:27;101508.00;;;32.70
34807;BMP180;18310;55.586;12.286;2022-08-21T08:40:39;101510.00;;;32.80
34807;BMP180;18310;55.586;12.286;2022-08-21T08:43:51;101518.00;;;32.80
34807;BMP180;18310;55.586;12.286;2022-08-21T08:46:57;101508.00;;;32.80
34807;BMP180;18310;55.586;12.286;2022-08-21T08:50:06;101507.00;;;32.80
34807;BMP180;18310;55.586;12.286;2022-08-21T08:53:17;101505.00;;;32.80
34807;BMP180;18310;55.586;12.286;2022-08-21T08:56:31;101507.00;;;32.80
34807;BMP180;18310;55.586;12.286;2022-08-21T08:59:40;101507.00;;;32.80
34807;BMP180;18310;55.586;12.286;2022-08-21T09:02:46;101507.00;;;32.80
34807;BMP180;18310;55.586;12.286;2022-08-21T09:06:03;101500.00;;;32.90
34807;BMP180;18310;55.586;12.286;2022-08-21T09:09:24;101501.00;;;33.00
34807;BMP180;18310;55.586;12.286;2022-08-21T09:12:39;101498.00;;;33.10
34807;BMP180;18310;55.586;12.286;2022-08-21T09:15:56;101501.00;;;33.10
34807;BMP180;18310;55.586;12.286;2022-08-21T09:19:14;101501.00;;;33.10
34807;BMP180;18310;55.586;12.286;2022-08-21T09:22:39;101496.00;;;33.10
34807;BMP180;18310;55.586;12.286;2022-08-21T09:26:02;101485.00;;;33.20
34807;BMP180;18310;55.586;12.286;2022-08-21T09:29:11;101483.00;;;33.30
34807;BMP180;18310;55.586;12.286;2022-08-21T09:32:18;101486.00;;;33.20
34807;BMP180;18310;55.586;12.286;2022-08-21T09:35:24;101485.00;;;33.10
34807;BMP180;18310;55.586;12.286;2022-08-21T09:38:32;101487.00;;;33.10
34807;BMP180;18310;55.586;12.286;2022-08-21T09:41:36;101486.00;;;33.20
34807;BMP180;18310;55.586;12.286;2022-08-21T09:44:41;101488.00;;;33.30
34807;BMP180;18310;55.586;12.286;2022-08-21T09:47:45;101489.00;;;33.40
34807;BMP180;18310;55.586;12.286;2022-08-21T09:50:51;101494.00;;;33.40
34807;BMP180;18310;55.586;12.286;2022-08-21T09:54:12;101489.00;;;33.50
34807;BMP180;18310;55.586;12.286;2022-08-21T09:57:25;101490.00;;;33.50
34807;BMP180;18310;55.586;12.286;2022-08-21T10:00:59;101489.00;;;33.50
34807;BMP180;18310;55.586;12.286;2022-08-21T10:04:04;101489.00;;;33.40
34807;BMP180;18310;55.586;12.286;2022-08-21T10:07:08;101491.00;;;33.30
34807;BMP180;18310;55.586;12.286;2022-08-21T10:10:19;101484.00;;;33.20
34807;BMP180;18310;55.586;12.286;2022-08-21T10:13:43;101477.00;;;33.20
34807;BMP180;18310;55.586;12.286;2022-08-21T10:17:00;101477.00;;;33.30
34807;BMP180;18310;55.586;12.286;2022-08-21T10:20:14;101472.00;;;33.40
34807;BMP180;18310;55.586;12.286;2022-08-21T10:23:40;101467.00;;;33.60
34807;BMP180;18310;55.586;12.286;2022-08-21T10:27:05;101474.00;;;33.80
34807;BMP180;18310;55.586;12.286;2022-08-21T10:30:19;101460.00;;;33.90
34807;BMP180;18310;55.586;12.286;2022-08-21T10:33:35;101461.00;;;34.10
34807;BMP180;18310;55.586;12.286;2022-08-21T10:36:49;101461.00;;;34.30
34807;BMP180;18310;55.586;12.286;2022-08-21T10:40:12;101468.00;;;34.50
34807;BMP180;18310;55.586;12.286;2022-08-21T10:43:31;101463.00;;;34.70
34807;BMP180;18310;55.586;12.286;2022-08-21T10:46:49;101463.00;;;34.80
34807;BMP180;18310;55.586;12.286;2022-08-21T10:50:03;101467.00;;;34.90
34807;BMP180;18310;55.586;12.286;2022-08-21T10:53:57;101473.00;;;35.20
34807;BMP180;18310;55.586;12.286;2022-08-21T10:57:09;101477.00;;;35.20
34807;BMP180;18310;55.586;12.286;2022-08-21T11:00:20;101482.00;;;35.40
34807;BMP180;18310;55.586;12.286;2022-08-21T11:03:31;101480.00;;;35.50
34807;BMP180;18310;55.586;12.286;2022-08-21T11:06:40;101484.00;;;35.50
34807;BMP180;18310;55.586;12.286;2022-08-21T11:09:49;101488.00;;;35.60
34807;BMP180;18310;55.586;12.286;2022-08-21T11:12:58;101487.00;;;35.60
34807;BMP180;18310;55.586;12.286;2022-08-21T11:16:17;101486.00;;;35.60
34807;BMP180;18310;55.586;12.286;2022-08-21T11:19:31;101483.00;;;35.70
34807;BMP180;18310;55.586;12.286;2022-08-21T11:22:46;101477.00;;;35.70
34807;BMP180;18310;55.586;12.286;2022-08-21T11:26:05;101478.00;;;35.80
34807;BMP180;18310;55.586;12.286;2022-08-21T11:29:16;101475.00;;;35.80
34807;BMP180;18310;55.586;12.286;2022-08-21T11:33:02;101484.00;;;35.90
34807;BMP180;18310;55.586;12.286;2022-08-21T11:36:17;101480.00;;;35.90
34807;BMP180;18310;55.586;12.286;2022-08-21T11:39:33;101477.00;;;36.00
34807;BMP180;18310;55.586;12.286;2022-08-21T11:42:47;101481.00;;;36.00
34807;BMP180;18310;55.586;12.286;2022-08-21T11:45:55;101481.00;;;36.00
34807;BMP180;18310;55.586;12.286;2022-08-21T11:49:21;101488.00;;;36.10
34807;BMP180;18310;55.586;12.286;2022-08-21T11:52:35;101485.00;;;36.10
34807;BMP180;18310;55.586;12.286;2022-08-21T11:55:47;101478.00;;;36.10
34807;BMP180;18310;55.586;12.286;2022-08-21T11:58:56;101481.00;;;36.10
34807;BMP180;18310;55.586;12.286;2022-08-21T12:02:03;101479.00;;;36.10
34807;BMP180;18310;55.586;12.286;2022-08-21T12:05:26;101473.00;;;36.10
34807;BMP180;18310;55.586;12.286;2022-08-21T12:08:34;101477.00;;;36.00
34807;BMP180;18310;55.586;12.286;2022-08-21T12:11:48;101473.00;;;35.90
34807;BMP180;18310;55.586;12.286;2022-08-21T12:15:16;101469.00;;;35.80
34807;BMP180;18310;55.586;12.286;2022-08-21T12:18:24;101479.00;;;35.80
34807;BMP180;18310;55.586;12.286;2022-08-21T12:21:48;101464.00;;;35.80
34807;BMP180;18310;55.586;12.286;2022-08-21T12:25:07;101464.00;;;35.70
34807;BMP180;18310;55.586;12.286;2022-08-21T12:28:15;101458.00;;;35.60
34807;BMP180;18310;55.586;12.286;2022-08-21T12:31:24;101460.00;;;35.50
34807;BMP180;18310;55.586;12.286;2022-08-21T12:34:36;101460.00;;;35.50
34807;BMP180;18310;55.586;12.286;2022-08-21T12:37:45;101458.00;;;35.40
34807;BMP180;18310;55.586;12.286;2022-08-21T12:40:55;101450.00;;;35.40
34807;BMP180;18310;55.586;12.286;2022-08-21T12:44:04;101449.00;;;35.40
34807;BMP180;18310;55.586;12.286;2022-08-21T12:47:16;101442.00;;;35.50
34807;BMP180;18310;55.586;12.286;2022-08-21T12:50:29;101439.00;;;35.60
34807;BMP180;18310;55.586;12.286;2022-08-21T12:53:44;101442.00;;;35.80
34807;BMP180;18310;55.586;12.286;2022-08-21T12:56:59;101441.00;;;35.90
34807;BMP180;18310;55.586;12.286;2022-08-21T13:00:06;101444.00;;;36.00
34807;BMP180;18310;55.586;12.286;2022-08-21T13:03:14;101442.00;;;36.10
34807;BMP180;18310;55.586;12.286;2022-08-21T13:06:20;101443.00;;;36.10
34807;BMP180;18310;55.586;12.286;2022-08-21T13:09:30;101443.00;;;36.00
34807;BMP180;18310;55.586;12.286;2022-08-21T13:12:35;101441.00;;;36.00
34807;BMP180;18310;55.586;12.286;2022-08-21T13:15:41;101432.00;;;36.00
34807;BMP180;18310;55.586;12.286;2022-08-21T13:18:57;101429.00;;;36.00
34807;BMP180;18310;55.586;12.286;2022-08-21T13:22:01;101422.00;;;35.90
34807;BMP180;18310;55.586;12.286;2022-08-21T13:25:33;101432.00;;;36.00
34807;BMP180;18310;55.586;12.286;2022-08-21T13:28:36;101426.00;;;36.00
34807;BMP180;18310;55.586;12.286;2022-08-21T13:31:46;101424.00;;;36.00
34807;BMP180;18310;55.586;12.286;2022-08-21T13:34:50;101421.00;;;36.00
34807;BMP180;18310;55.586;12.286;2022-08-21T13:37:56;101425.00;;;36.00
34807;BMP180;18310;55.586;12.286;2022-08-21T13:41:05;101425.00;;;36.00
34807;BMP180;18310;55.586;12.286;2022-08-21T13:44:17;101413.00;;;36.00
34807;BMP180;18310;55.586;12.286;2022-08-21T13:47:22;101424.00;;;35.90
34807;BMP180;18310;55.586;12.286;2022-08-21T13:50:25;101425.00;;;35.90
34807;BMP180;18310;55.586;12.286;2022-08-21T13:53:33;101421.00;;;36.00
34807;BMP180;18310;55.586;12.286;2022-08-21T13:56:45;101418.00;;;36.00
34807;BMP180;18310;55.586;12.286;2022-08-21T13:59:48;101415.00;;;35.90
34807;BMP180;18310;55.586;12.286;2022-08-21T14:03:00;101419.00;;;35.90
34807;BMP180;18310;55.586;12.286;2022-08-21T14:06:12;101424.00;;;35.90
34807;BMP180;18310;55.586;12.286;2022-08-21T14:09:28;101419.00;;;35.80
34807;BMP180;18310;55.586;12.286;2022-08-21T14:12:43;101419.00;;;35.70
34807;BMP180;18310;55.586;12.286;2022-08-21T14:15:56;101414.00;;;35.70
34807;BMP180;18310;55.586;12.286;2022-08-21T14:19:11;101426.00;;;35.70
34807;BMP180;18310;55.586;12.286;2022-08-21T14:22:30;101423.00;;;35.70
34807;BMP180;18310;55.586;12.286;2022-08-21T14:25:40;101424.00;;;35.70
34807;BMP180;18310;55.586;12.286;2022-08-21T14:28:46;101420.00;;;35.70
34807;BMP180;18310;55.586;12.286;2022-08-21T14:31:51;101421.00;;;35.70
34807;BMP180;18310;55.586;12.286;2022-08-21T14:34:56;101418.00;;;35.70
34807;BMP180;18310;55.586;12.286;2022-08-21T14:38:00;101428.00;;;35.60
34807;BMP180;18310;55.586;12.286;2022-08-21T14:41:13;101426.00;;;35.40
34807;BMP180;18310;55.586;12.286;2022-08-21T14:44:20;101411.00;;;35.30
34807;BMP180;18310;55.586;12.286;2022-08-21T14:47:23;101427.00;;;35.30
34807;BMP180;18310;55.586;12.286;2022-08-21T14:50:27;101417.00;;;35.20
34807;BMP180;18310;55.586;12.286;2022-08-21T14:53:30;101410.00;;;35.10
34807;BMP180;18310;55.586;12.286;2022-08-21T14:56:34;101423.00;;;35.00
34807;BMP180;18310;55.586;12.286;2022-08-21T14:59:39;101414.00;;;35.00
34807;BMP180;18310;55.586;12.286;2022-08-21T15:02:43;101413.00;;;35.00
34807;BMP180;18310;55.586;12.286;2022-08-21T15:05:46;101418.00;;;35.00
34807;BMP180;18310;55.586;12.286;2022-08-21T15:08:49;101419.00;;;34.90
34807;BMP180;18310;55.586;12.286;2022-08-21T15:11:57;101417.00;;;34.90
34807;BMP180;18310;55.586;12.286;2022-08-21T15:15:06;101418.00;;;34.80
34807;BMP180;18310;55.586;12.286;2022-08-21T15:18:10;101417.00;;;34.70
34807;BMP180;18310;55.586;12.286;2022-08-21T15:21:14;101423.00;;;34.70
34807;BMP180;18310;55.586;12.286;2022-08-21T15:24:17;101419.00;;;34.70
34807;BMP180;18310;55.586;12.286;2022-08-21T15:27:20;101420.00;;;34.50
34807;BMP180;18310;55.586;12.286;2022-08-21T15:30:25;101422.00;;;34.50
34807;BMP180;18310;55.586;12.286;2022-08-21T15:33:28;101414.00;;;34.50
34807;BMP180;18310;55.586;12.286;2022-08-21T15:36:32;101419.00;;;34.50
34807;BMP180;18310;55.586;12.286;2022-08-21T15:39:36;101418.00;;;34.40
34807;BMP180;18310;55.586;12.286;2022-08-21T15:42:42;101419.00;;;34.40
34807;BMP180;18310;55.586;12.286;2022-08-21T15:45:47;101427.00;;;34.30
34807;BMP180;18310;55.586;12.286;2022-08-21T15:48:51;101428.00;;;34.30
34807;BMP180;18310;55.586;12.286;2022-08-21T15:52:01;101417.00;;;34.20
34807;BMP180;18310;55.586;12.286;2022-08-21T15:55:06;101416.00;;;34.10
34807;BMP180;18310;55.586;12.286;2022-08-21T15:58:14;101419.00;;;34.00
34807;BMP180;18310;55.586;12.286;2022-08-21T16:01:20;101426.00;;;34.00
34807;BMP180;18310;55.586;12.286;2022-08-21T16:04:27;101422.00;;;34.00
34807;BMP180;18310;55.586;12.286;2022-08-21T16:07:30;101424.00;;;34.00
34807;BMP180;18310;55.586;12.286;2022-08-21T16:10:36;101420.00;;;34.10
34807;BMP180;18310;55.586;12.286;2022-08-21T16:13:43;101423.00;;;34.20
34807;BMP180;18310;55.586;12.286;2022-08-21T16:16:48;101423.00;;;34.30
34807;BMP180;18310;55.586;12.286;2022-08-21T16:19:51;101431.00;;;34.40
34807;BMP180;18310;55.586;12.286;2022-08-21T16:22:57;101428.00;;;34.40
34807;BMP180;18310;55.586;12.286;2022-08-21T16:26:02;101426.00;;;34.50
34807;BMP180;18310;55.586;12.286;2022-08-21T16:29:08;101434.00;;;34.40
34807;BMP180;18310;55.586;12.286;2022-08-21T16:32:14;101424.00;;;34.40
34807;BMP180;18310;55.586;12.286;2022-08-21T16:35:20;101425.00;;;34.40
34807;BMP180;18310;55.586;12.286;2022-08-21T16:38:23;101429.00;;;34.30
34807;BMP180;18310;55.586;12.286;2022-08-21T16:41:33;101429.00;;;34.30
34807;BMP180;18310;55.586;12.286;2022-08-21T16:44:37;101427.00;;;34.20
34807;BMP180;18310;55.586;12.286;2022-08-21T16:47:42;101429.00;;;34.20
34807;BMP180;18310;55.586;12.286;2022-08-21T16:50:46;101430.00;;;34.20
34807;BMP180;18310;55.586;12.286;2022-08-21T16:53:52;101422.00;;;34.10
34807;BMP180;18310;55.586;12.286;2022-08-21T16:56:55;101424.00;;;34.00
34807;BMP180;18310;55.586;12.286;2022-08-21T17:00:08;101428.00;;;33.90
34807;BMP180;18310;55.586;12.286;2022-08-21T17:03:18;101424.00;;;33.90
34807;BMP180;18310;55.586;12.286;2022-08-21T17:06:22;101426.00;;;33.80
34807;BMP180;18310;55.586;12.286;2022-08-21T17:09:30;101430.00;;;33.80
34807;BMP180;18310;55.586;12.286;2022-08-21T17:12:34;101428.00;;;33.70
34807;BMP180;18310;55.586;12.286;2022-08-21T17:15:38;101438.00;;;33.70
34807;BMP180;18310;55.586;12.286;2022-08-21T17:18:44;101426.00;;;33.50
34807;BMP180;18310;55.586;12.286;2022-08-21T17:21:52;101432.00;;;33.40
34807;BMP180;18310;55.586;12.286;2022-08-21T17:24:56;101430.00;;;33.10
34807;BMP180;18310;55.586;12.286;2022-08-21T17:28:00;101439.00;;;32.90
34807;BMP180;18310;55.586;12.286;2022-08-21T17:31:08;101450.00;;;32.70